createdAt,value
2018-06-10T00:00:50.536Z,57.48
2018-06-10T00:01:50.526Z,57.68
2018-06-10T00:02:50.541Z,57.48
2018-06-10T00:03:50.503Z,57.38
2018-06-10T00:04:50.495Z,57.51
2018-06-10T00:05:50.481Z,57.48
2018-06-10T00:06:50.470Z,57.51
2018-06-10T00:07:50.459Z,57.41
2018-06-10T00:08:50.494Z,57.51
2018-06-10T00:09:50.437Z,57.41
2018-06-10T00:10:50.426Z,57.41
2018-06-10T00:11:50.417Z,57.51
2018-06-10T00:12:50.405Z,57.60
2018-06-10T00:13:50.393Z,57.60
2018-06-10T00:14:50.409Z,57.51
2018-06-10T00:15:50.373Z,57.21
2018-06-10T00:16:50.361Z,57.11
2018-06-10T00:17:50.351Z,57.31
2018-06-10T00:18:50.343Z,57.81
2018-06-10T00:19:50.329Z,57.41
2018-06-10T00:20:50.336Z,57.31
2018-06-10T00:21:50.308Z,57.51
2018-06-10T00:22:50.305Z,57.81
2018-06-10T00:23:50.286Z,57.51
2018-06-10T00:24:50.275Z,57.51
2018-06-10T00:25:50.282Z,57.51
2018-06-10T00:26:50.265Z,57.51
2018-06-10T00:27:50.243Z,57.60
2018-06-10T00:28:50.280Z,57.51
2018-06-10T00:29:50.220Z,57.21
2018-06-10T00:30:50.228Z,57.11
2018-06-10T00:31:50.198Z,57.51
2018-06-10T00:32:50.188Z,57.60
2018-06-10T00:33:50.179Z,57.21
2018-06-10T00:34:50.167Z,57.60
2018-06-10T00:35:50.173Z,57.60
2018-06-10T00:36:50.146Z,57.51
2018-06-10T00:37:50.134Z,57.21
2018-06-10T00:38:50.123Z,57.21
2018-06-10T00:39:50.112Z,57.31
2018-06-10T00:40:50.119Z,57.31
2018-06-10T00:41:50.091Z,57.31
2018-06-10T00:42:50.078Z,57.31
2018-06-10T00:43:50.068Z,57.81
2018-06-10T00:44:50.058Z,57.83
2018-06-10T00:45:50.064Z,57.81
2018-06-10T00:46:50.036Z,57.70
2018-06-10T00:47:50.026Z,57.21
2018-06-10T00:48:50.015Z,56.94
2018-06-10T00:49:50.003Z,58.00
2018-06-10T00:50:50.019Z,57.93
2018-06-10T00:51:49.983Z,58.13
2018-06-10T00:52:49.971Z,58.00
2018-06-10T00:53:49.961Z,57.83
2018-06-10T00:54:49.951Z,58.03
2018-06-10T00:55:49.939Z,58.03
2018-06-10T00:56:49.958Z,58.13
2018-06-10T00:57:49.918Z,57.70
2018-06-10T00:58:49.906Z,57.64
2018-06-10T00:59:49.900Z,57.73
2018-06-10T01:00:49.893Z,57.73
2018-06-10T01:01:49.873Z,57.64
2018-06-10T01:02:49.899Z,57.73
2018-06-10T01:03:49.852Z,57.93
2018-06-10T01:04:49.841Z,57.64
2018-06-10T01:05:49.830Z,57.53
2018-06-10T01:06:49.821Z,57.41
2018-06-10T01:07:49.812Z,58.53
2018-06-10T01:08:49.815Z,58.43
2018-06-10T01:09:49.787Z,58.13
2018-06-10T01:10:49.778Z,58.13
2018-06-10T01:11:49.765Z,58.23
2018-06-10T01:12:49.754Z,57.73
2018-06-10T01:13:49.762Z,58.03
2018-06-10T01:14:49.733Z,57.64
2018-06-10T01:15:49.722Z,58.23
2018-06-10T01:16:49.712Z,57.73
2018-06-10T01:17:49.726Z,57.64
2018-06-10T01:18:49.690Z,58.13
2018-06-10T01:19:49.679Z,58.13
2018-06-10T01:20:49.667Z,58.13
2018-06-10T01:21:49.658Z,57.64
2018-06-10T01:22:49.647Z,57.73
2018-06-10T01:23:49.655Z,58.23
2018-06-10T01:24:49.626Z,57.93
2018-06-10T01:25:49.614Z,57.93
2018-06-10T01:26:49.603Z,57.83
2018-06-10T01:27:49.593Z,57.83
2018-06-10T01:28:49.603Z,57.73
2018-06-10T01:29:49.570Z,57.64
2018-06-10T01:30:49.564Z,58.13
2018-06-10T01:31:49.549Z,57.73
2018-06-10T01:32:49.565Z,58.13
2018-06-10T01:33:49.537Z,58.23
2018-06-10T01:34:49.517Z,58.13
2018-06-10T01:35:49.507Z,57.64
2018-06-10T01:36:49.495Z,57.53
2018-06-10T01:37:49.484Z,58.03
2018-06-10T01:38:49.506Z,57.73
2018-06-10T01:39:49.465Z,57.93
2018-06-10T01:40:49.452Z,57.34
2018-06-10T01:41:49.441Z,57.14
2018-06-10T01:42:49.457Z,57.04
2018-06-10T01:43:49.427Z,58.03
2018-06-10T01:44:49.413Z,58.23
2018-06-10T01:45:49.404Z,57.83
2018-06-10T01:46:49.387Z,57.83
2018-06-10T01:47:49.378Z,57.93
2018-06-10T01:48:49.388Z,58.03
2018-06-10T01:49:49.364Z,58.13
2018-06-10T01:50:49.354Z,57.83
2018-06-10T01:51:49.336Z,57.83
2018-06-10T01:52:49.326Z,57.83
2018-06-10T01:53:49.338Z,58.13
2018-06-10T01:54:49.308Z,58.13
2018-06-10T01:55:49.289Z,57.83
2018-06-10T01:56:49.278Z,58.03
2018-06-10T01:57:49.271Z,58.03
2018-06-10T01:58:49.281Z,57.83
2018-06-10T01:59:49.252Z,57.64
2018-06-10T02:00:49.243Z,58.13
2018-06-10T02:01:49.244Z,57.83
2018-06-10T02:02:49.218Z,57.64
2018-06-10T02:03:49.221Z,57.04
2018-06-10T02:04:49.202Z,57.04
2018-06-10T02:05:49.185Z,57.83
2018-06-10T02:06:49.172Z,57.53
2018-06-10T02:07:49.161Z,58.03
2018-06-10T02:08:49.166Z,57.83
2018-06-10T02:09:49.140Z,58.13
2018-06-10T02:10:49.132Z,57.83
2018-06-10T02:11:49.123Z,58.03
2018-06-10T02:12:49.111Z,57.14
2018-06-10T02:13:49.117Z,58.03
2018-06-10T02:14:49.086Z,57.93
2018-06-10T02:15:49.074Z,57.24
2018-06-10T02:16:49.062Z,57.04
2018-06-10T02:17:49.053Z,57.83
2018-06-10T02:18:49.062Z,57.83
2018-06-10T02:19:49.038Z,57.83
2018-06-10T02:20:49.017Z,57.93
2018-06-10T02:21:49.009Z,57.14
2018-06-10T02:22:49.003Z,57.04
2018-06-10T02:23:49.034Z,57.24
2018-06-10T02:24:48.985Z,57.14
2018-06-10T02:25:48.969Z,57.14
2018-06-10T02:26:48.955Z,58.03
2018-06-10T02:27:48.943Z,58.33
2018-06-10T02:28:48.958Z,57.93
2018-06-10T02:29:48.927Z,58.03
2018-06-10T02:30:48.916Z,58.03
2018-06-10T02:31:48.908Z,57.93
2018-06-10T02:32:48.896Z,57.64
2018-06-10T02:33:48.881Z,57.73
2018-06-10T02:34:48.887Z,58.03
2018-06-10T02:35:48.857Z,58.03
2018-06-10T02:36:48.854Z,57.34
2018-06-10T02:37:48.841Z,57.64
2018-06-10T02:38:48.825Z,57.83
2018-06-10T02:39:48.832Z,57.93
2018-06-10T02:40:48.814Z,57.14
2018-06-10T02:41:48.793Z,57.24
2018-06-10T02:42:48.785Z,57.83
2018-06-10T02:43:48.776Z,58.03
2018-06-10T02:44:48.784Z,57.83
2018-06-10T02:45:48.755Z,58.03
2018-06-10T02:46:48.755Z,57.93
2018-06-10T02:47:48.726Z,57.83
2018-06-10T02:48:48.721Z,57.24
2018-06-10T02:49:48.734Z,57.14
2018-06-10T02:50:48.703Z,57.81
2018-06-10T02:51:48.690Z,57.04
2018-06-10T02:52:48.673Z,57.93
2018-06-10T02:53:48.670Z,57.93
2018-06-10T02:54:48.655Z,57.14
2018-06-10T02:55:48.664Z,57.34
2018-06-10T02:56:48.635Z,58.13
2018-06-10T02:57:48.623Z,58.03
2018-06-10T02:58:48.610Z,58.03
2018-06-10T02:59:48.611Z,57.83
2018-06-10T03:00:48.611Z,57.93
2018-06-10T03:01:48.574Z,57.83
2018-06-10T03:02:48.571Z,57.83
2018-06-10T03:03:48.563Z,57.93
2018-06-10T03:04:48.547Z,58.03
2018-06-10T03:05:48.557Z,58.03
2018-06-10T03:06:48.520Z,57.93
2018-06-10T03:07:48.616Z,57.73
2018-06-10T03:08:48.502Z,58.03
2018-06-10T03:09:48.516Z,57.24
2018-06-10T03:10:48.476Z,57.14
2018-06-10T03:11:48.463Z,57.93
2018-06-10T03:12:48.453Z,57.64
2018-06-10T03:13:48.461Z,57.83
2018-06-10T03:14:48.436Z,57.24
2018-06-10T03:15:48.455Z,57.93
2018-06-10T03:16:48.409Z,58.03
2018-06-10T03:17:48.409Z,57.34
2018-06-10T03:18:48.392Z,57.04
2018-06-10T03:19:48.382Z,57.14
2018-06-10T03:20:48.373Z,57.14
2018-06-10T03:21:48.378Z,58.03
2018-06-10T03:22:48.347Z,58.13
2018-06-10T03:23:48.338Z,57.14
2018-06-10T03:24:48.337Z,57.14
2018-06-10T03:25:48.320Z,57.83
2018-06-10T03:26:48.333Z,57.14
2018-06-10T03:27:48.296Z,57.93
2018-06-10T03:28:48.296Z,57.73
2018-06-10T03:29:48.269Z,56.94
2018-06-10T03:30:48.264Z,57.64
2018-06-10T03:31:48.271Z,57.14
2018-06-10T03:32:48.254Z,57.93
2018-06-10T03:33:48.228Z,57.64
2018-06-10T03:34:48.223Z,56.94
2018-06-10T03:35:48.200Z,58.03
2018-06-10T03:36:48.211Z,57.24
2018-06-10T03:37:48.187Z,57.04
2018-06-10T03:38:48.191Z,57.24
2018-06-10T03:39:48.176Z,57.24
2018-06-10T03:40:48.154Z,57.24
2018-06-10T03:41:48.169Z,57.14
2018-06-10T03:42:48.137Z,57.73
2018-06-10T03:43:48.125Z,57.93
2018-06-10T03:44:48.109Z,57.34
2018-06-10T03:45:48.098Z,58.13
2018-06-10T03:46:48.103Z,57.14
2018-06-10T03:47:48.069Z,57.11
2018-06-10T03:48:48.059Z,57.83
2018-06-10T03:49:48.051Z,57.34
2018-06-10T03:50:48.040Z,57.34
2018-06-10T03:51:48.061Z,57.14
2018-06-10T03:52:48.022Z,57.14
2018-06-10T03:53:48.009Z,57.24
2018-06-10T03:54:47.995Z,57.93
2018-06-10T03:55:47.991Z,57.24
2018-06-10T03:56:47.996Z,57.14
2018-06-10T03:57:47.964Z,57.83
2018-06-10T03:58:47.952Z,57.83
2018-06-10T03:59:47.938Z,58.03
2018-06-10T04:00:47.928Z,58.13
2018-06-10T04:01:47.938Z,57.83
2018-06-10T04:02:47.913Z,58.13
2018-06-10T04:03:47.910Z,58.03
2018-06-10T04:04:47.895Z,57.24
2018-06-10T04:05:47.880Z,57.83
2018-06-10T04:06:47.883Z,57.24
2018-06-10T04:07:47.851Z,57.24
2018-06-10T04:08:47.841Z,58.03
2018-06-10T04:09:47.834Z,58.13
2018-06-10T04:10:47.829Z,57.53
2018-06-10T04:11:47.842Z,57.24
2018-06-10T04:12:47.799Z,57.24
2018-06-10T04:13:47.790Z,57.14
2018-06-10T04:14:47.781Z,58.03
2018-06-10T04:15:47.773Z,57.24
2018-06-10T04:16:47.784Z,57.34
2018-06-10T04:17:47.752Z,57.14
2018-06-10T04:18:47.735Z,57.14
2018-06-10T04:19:47.725Z,57.14
2018-06-10T04:20:47.725Z,57.14
2018-06-10T04:21:47.727Z,57.14
2018-06-10T04:22:47.698Z,57.24
2018-06-10T04:23:47.684Z,58.03
2018-06-10T04:24:47.678Z,56.94
2018-06-10T04:25:47.663Z,58.13
2018-06-10T04:26:47.669Z,57.93
2018-06-10T04:27:47.637Z,57.64
2018-06-10T04:28:47.631Z,57.14
2018-06-10T04:29:47.620Z,57.04
2018-06-10T04:30:47.606Z,57.14
2018-06-10T04:31:47.611Z,57.14
2018-06-10T04:32:47.581Z,57.24
2018-06-10T04:33:47.572Z,56.94
2018-06-10T04:34:47.563Z,57.73
2018-06-10T04:35:47.555Z,57.24
2018-06-10T04:36:47.562Z,58.13
2018-06-10T04:37:47.530Z,57.34
2018-06-10T04:38:47.516Z,58.03
2018-06-10T04:39:47.503Z,57.93
2018-06-10T04:40:47.495Z,57.34
2018-06-10T04:41:47.503Z,57.34
2018-06-10T04:42:47.475Z,57.14
2018-06-10T04:43:47.465Z,57.14
2018-06-10T04:44:47.460Z,57.83
2018-06-10T04:45:47.457Z,57.24
2018-06-10T04:46:47.461Z,58.13
2018-06-10T04:47:47.427Z,57.24
2018-06-10T04:48:47.412Z,57.93
2018-06-10T04:49:47.399Z,57.34
2018-06-10T04:50:47.385Z,57.34
2018-06-10T04:51:47.397Z,57.24
2018-06-10T04:52:47.361Z,57.04
2018-06-10T04:53:47.351Z,57.24
2018-06-10T04:54:47.352Z,57.34
2018-06-10T04:55:47.337Z,57.43
2018-06-10T04:56:47.354Z,57.43
2018-06-10T04:57:47.311Z,57.34
2018-06-10T04:58:47.308Z,57.34
2018-06-10T04:59:47.293Z,57.34
2018-06-10T05:00:47.281Z,57.14
2018-06-10T05:01:47.296Z,57.34
2018-06-10T05:02:47.253Z,57.24
2018-06-10T05:03:47.239Z,57.14
2018-06-10T05:04:47.227Z,57.14
2018-06-10T05:05:47.221Z,57.14
2018-06-10T05:06:47.237Z,57.34
2018-06-10T05:07:47.207Z,57.53
2018-06-10T05:08:47.191Z,57.34
2018-06-10T05:09:47.183Z,56.94
2018-06-10T05:10:47.165Z,57.04
2018-06-10T05:11:47.151Z,57.53
2018-06-10T05:12:47.159Z,57.34
2018-06-10T05:13:47.130Z,57.24
2018-06-10T05:14:47.122Z,57.14
2018-06-10T05:15:47.114Z,57.14
2018-06-10T05:16:47.095Z,57.76
2018-06-10T05:17:47.105Z,57.04
2018-06-10T05:18:47.080Z,57.24
2018-06-10T05:19:47.150Z,57.34
2018-06-10T05:20:47.058Z,57.34
2018-06-10T05:21:47.047Z,57.14
2018-06-10T05:22:47.079Z,57.43
2018-06-10T05:23:47.018Z,57.34
2018-06-10T05:24:47.007Z,57.43
2018-06-10T05:25:46.998Z,57.34
2018-06-10T05:26:46.989Z,57.14
2018-06-10T05:27:47.006Z,57.83
2018-06-10T05:28:46.969Z,57.43
2018-06-10T05:29:46.956Z,57.64
2018-06-10T05:30:46.943Z,57.43
2018-06-10T05:31:46.928Z,57.53
2018-06-10T05:32:46.927Z,57.60
2018-06-10T05:33:46.931Z,57.34
2018-06-10T05:34:46.897Z,57.53
2018-06-10T05:35:46.886Z,57.53
2018-06-10T05:36:46.872Z,57.73
2018-06-10T05:37:46.975Z,57.53
2018-06-10T05:38:46.880Z,57.64
2018-06-10T05:39:46.846Z,57.64
2018-06-10T05:40:46.835Z,57.73
2018-06-10T05:41:46.826Z,57.64
2018-06-10T05:42:46.812Z,57.34
2018-06-10T05:43:46.798Z,57.64
2018-06-10T05:44:46.801Z,57.34
2018-06-10T05:45:46.774Z,57.64
2018-06-10T05:46:46.764Z,57.73
2018-06-10T05:47:46.756Z,57.53
2018-06-10T05:48:46.738Z,57.73
2018-06-10T05:49:46.757Z,57.43
2018-06-10T05:50:46.720Z,57.34
2018-06-10T05:51:46.711Z,57.43
2018-06-10T05:52:46.700Z,57.64
2018-06-10T05:53:46.687Z,57.53
2018-06-10T05:54:46.674Z,57.53
2018-06-10T05:55:46.687Z,57.31
2018-06-10T05:56:46.650Z,57.43
2018-06-10T05:57:46.644Z,57.64
2018-06-10T05:58:46.633Z,57.51
2018-06-10T05:59:46.623Z,57.34
2018-06-10T06:00:46.612Z,57.83
2018-06-10T06:01:46.618Z,57.83
2018-06-10T06:02:46.586Z,57.53
2018-06-10T06:03:46.580Z,57.73
2018-06-10T06:04:46.573Z,57.83
2018-06-10T06:05:46.554Z,57.51
2018-06-10T06:06:46.559Z,57.73
2018-06-10T06:07:46.527Z,57.34
2018-06-10T06:08:46.515Z,57.43
2018-06-10T06:09:46.507Z,57.53
2018-06-10T06:10:46.500Z,57.83
2018-06-10T06:11:46.506Z,57.64
2018-06-10T06:12:46.479Z,57.53
2018-06-10T06:13:46.466Z,57.53
2018-06-10T06:14:46.449Z,57.53
2018-06-10T06:15:46.438Z,57.53
2018-06-10T06:16:46.453Z,57.43
2018-06-10T06:17:46.442Z,57.53
2018-06-10T06:18:46.407Z,57.64
2018-06-10T06:19:46.400Z,57.11
2018-06-10T06:20:46.382Z,57.43
2018-06-10T06:21:46.375Z,57.53
2018-06-10T06:22:46.384Z,57.43
2018-06-10T06:23:46.363Z,57.43
2018-06-10T06:24:46.343Z,57.83
2018-06-10T06:25:46.330Z,57.93
2018-06-10T06:26:46.345Z,57.14
2018-06-10T06:27:46.306Z,57.04
2018-06-10T06:28:46.291Z,57.14
2018-06-10T06:29:46.284Z,57.34
2018-06-10T06:30:46.274Z,57.34
2018-06-10T06:31:46.263Z,57.24
2018-06-10T06:32:46.272Z,57.73
2018-06-10T06:33:46.238Z,57.43
2018-06-10T06:34:46.244Z,57.53
2018-06-10T06:35:46.212Z,57.53
2018-06-10T06:36:46.207Z,57.64
2018-06-10T06:37:46.216Z,57.34
2018-06-10T06:38:46.181Z,57.83
2018-06-10T06:39:46.166Z,57.83
2018-06-10T06:40:46.154Z,58.03
2018-06-10T06:41:46.146Z,58.43
2018-06-10T06:42:46.162Z,57.73
2018-06-10T06:43:46.127Z,57.93
2018-06-10T06:44:46.115Z,57.64
2018-06-10T06:45:46.107Z,57.83
2018-06-10T06:46:46.105Z,58.13
2018-06-10T06:47:46.075Z,57.34
2018-06-10T06:48:46.091Z,58.03
2018-06-10T06:49:46.056Z,57.14
2018-06-10T06:50:46.046Z,57.64
2018-06-10T06:51:46.040Z,57.14
2018-06-10T06:52:46.018Z,57.93
2018-06-10T06:53:46.022Z,57.14
2018-06-10T06:54:46.023Z,57.53
2018-06-10T06:55:45.993Z,58.03
2018-06-10T06:56:45.981Z,58.03
2018-06-10T06:57:45.971Z,58.13
2018-06-10T06:58:45.954Z,57.83
2018-06-10T06:59:45.958Z,57.64
2018-06-10T07:00:45.928Z,57.24
2018-06-10T07:01:45.921Z,58.13
2018-06-10T07:02:45.911Z,57.14
2018-06-10T07:03:45.905Z,57.04
2018-06-10T07:04:45.908Z,57.14
2018-06-10T07:05:45.876Z,57.93
2018-06-10T07:06:45.863Z,57.14
2018-06-10T07:07:45.849Z,57.14
2018-06-10T07:08:45.845Z,57.64
2018-06-10T07:09:45.856Z,58.03
2018-06-10T07:10:45.818Z,57.83
2018-06-10T07:11:45.804Z,57.24
2018-06-10T07:12:45.795Z,57.14
2018-06-10T07:13:45.784Z,57.93
2018-06-10T07:14:45.803Z,57.24
2018-06-10T07:15:45.767Z,57.14
2018-06-10T07:16:45.754Z,57.14
2018-06-10T07:17:45.741Z,57.34
2018-06-10T07:18:45.740Z,57.83
2018-06-10T07:19:45.715Z,57.24
2018-06-10T07:20:45.722Z,57.24
2018-06-10T07:21:45.695Z,57.14
2018-06-10T07:22:45.688Z,57.04
2018-06-10T07:23:45.788Z,57.93
2018-06-10T07:24:45.658Z,57.04
2018-06-10T07:25:45.678Z,57.14
2018-06-10T07:26:45.639Z,57.24
2018-06-10T07:27:45.635Z,57.14
2018-06-10T07:28:45.623Z,57.24
2018-06-10T07:29:45.605Z,57.24
2018-06-10T07:30:45.592Z,57.24
2018-06-10T07:31:45.607Z,57.14
2018-06-10T07:32:45.572Z,57.14
2018-06-10T07:33:45.559Z,57.14
2018-06-10T07:34:45.551Z,57.14
2018-06-10T07:35:45.542Z,57.24
2018-06-10T07:36:45.532Z,57.24
2018-06-10T07:37:45.561Z,57.14
2018-06-10T07:38:45.503Z,57.43
2018-06-10T07:39:45.493Z,57.34
2018-06-10T07:40:45.487Z,57.14
2018-06-10T07:41:45.485Z,57.24
2018-06-10T07:42:45.491Z,57.83
2018-06-10T07:43:45.448Z,57.34
2018-06-10T07:44:45.435Z,57.34
2018-06-10T07:45:45.433Z,57.21
2018-06-10T07:46:45.419Z,57.04
2018-06-10T07:47:45.425Z,58.13
2018-06-10T07:48:45.393Z,57.34
2018-06-10T07:49:45.382Z,57.51
2018-06-10T07:50:45.367Z,57.53
2018-06-10T07:51:45.356Z,57.34
2018-06-10T07:52:45.365Z,57.31
2018-06-10T07:53:45.332Z,57.31
2018-06-10T07:54:45.332Z,57.11
2018-06-10T07:55:45.317Z,57.31
2018-06-10T07:56:45.299Z,57.93
2018-06-10T07:57:45.315Z,57.34
2018-06-10T07:58:45.281Z,57.53
2018-06-10T07:59:45.267Z,57.34
2018-06-10T08:00:45.257Z,57.64
2018-06-10T08:01:45.249Z,57.73
2018-06-10T08:02:45.230Z,59.05
2018-06-10T08:03:45.239Z,58.65
2018-06-10T08:04:45.210Z,59.75
2018-06-10T08:05:45.197Z,61.87
2018-06-10T08:06:45.194Z,61.69
2018-06-10T08:07:45.183Z,62.29
2018-06-10T08:08:45.199Z,62.40
2018-06-10T08:09:45.161Z,61.99
2018-06-10T08:10:45.143Z,61.80
2018-06-10T08:11:45.134Z,61.10
2018-06-10T08:12:45.126Z,60.17
2018-06-10T08:13:45.116Z,59.68
2018-06-10T08:14:45.150Z,59.38
2018-06-10T08:15:45.092Z,58.88
2018-06-10T08:16:45.098Z,58.98
2018-06-10T08:17:45.066Z,57.66
2018-06-10T08:18:45.067Z,57.36
2018-06-10T08:19:45.075Z,57.36
2018-06-10T08:20:45.037Z,56.96
2018-06-10T08:21:45.033Z,56.57
2018-06-10T08:22:45.010Z,55.97
2018-06-10T08:23:45.001Z,55.97
2018-06-10T08:24:44.988Z,55.35
2018-06-10T08:25:45.005Z,55.18
2018-06-10T08:26:44.973Z,54.68
2018-06-10T08:27:44.959Z,54.25
2018-06-10T08:28:44.953Z,54.16
2018-06-10T08:29:44.931Z,54.06
2018-06-10T08:30:44.926Z,54.06
2018-06-10T08:31:44.942Z,53.58
2018-06-10T08:32:44.900Z,53.36
2018-06-10T08:33:44.893Z,53.06
2018-06-10T08:34:44.873Z,53.06
2018-06-10T08:35:44.865Z,53.46
2018-06-10T08:36:44.853Z,52.37
2018-06-10T08:37:44.858Z,52.56
2018-06-10T08:38:44.848Z,51.87
2018-06-10T08:39:44.825Z,52.26
2018-06-10T08:40:44.810Z,51.37
2018-06-10T08:41:44.801Z,51.87
2018-06-10T08:42:44.801Z,51.67
2018-06-10T08:43:44.783Z,51.47
2018-06-10T08:44:44.764Z,51.15
2018-06-10T08:45:44.754Z,50.35
2018-06-10T08:46:44.738Z,50.65
2018-06-10T08:47:44.750Z,50.05
2018-06-10T08:48:44.717Z,49.96
2018-06-10T08:49:44.707Z,50.65
2018-06-10T08:50:44.700Z,49.36
2018-06-10T08:51:44.713Z,49.56
2018-06-10T08:52:44.696Z,49.76
2018-06-10T08:53:44.666Z,49.96
2018-06-10T08:54:44.648Z,49.46
2018-06-10T08:55:44.641Z,49.07
2018-06-10T08:56:44.628Z,49.26
2018-06-10T08:57:44.646Z,49.26
2018-06-10T08:58:44.611Z,48.27
2018-06-10T08:59:44.607Z,49.16
2018-06-10T09:00:44.583Z,49.07
2018-06-10T09:01:44.578Z,48.57
2018-06-10T09:02:44.620Z,48.17
2018-06-10T09:03:44.580Z,48.27
2018-06-10T09:04:44.556Z,48.07
2018-06-10T09:05:44.529Z,48.27
2018-06-10T09:06:44.514Z,48.27
2018-06-10T09:07:44.501Z,48.66
2018-06-10T09:08:44.567Z,47.67
2018-06-10T09:09:44.507Z,47.87
2018-06-10T09:10:44.472Z,47.97
2018-06-10T09:11:44.462Z,47.55
2018-06-10T09:12:44.449Z,47.65
2018-06-10T09:13:44.438Z,47.38
2018-06-10T09:14:44.462Z,47.55
2018-06-10T09:15:44.414Z,47.35
2018-06-10T09:16:44.408Z,47.16
2018-06-10T09:17:44.395Z,47.08
2018-06-10T09:18:44.375Z,46.88
2018-06-10T09:19:44.369Z,47.28
2018-06-10T09:20:44.383Z,46.46
2018-06-10T09:21:44.381Z,46.48
2018-06-10T09:22:44.340Z,46.26
2018-06-10T09:23:44.325Z,46.95
2018-06-10T09:24:44.312Z,46.56
2018-06-10T09:25:44.305Z,47.57
2018-06-10T09:26:44.306Z,48.27
2018-06-10T09:27:44.277Z,50.16
2018-06-10T09:28:44.300Z,50.38
2018-06-10T09:29:44.255Z,51.97
2018-06-10T09:30:44.249Z,51.87
2018-06-10T09:31:44.258Z,53.56
2018-06-10T09:32:44.223Z,52.26
2018-06-10T09:33:44.210Z,53.56
2018-06-10T09:34:44.208Z,54.55
2018-06-10T09:35:44.194Z,54.75
2018-06-10T09:36:44.204Z,54.78
2018-06-10T09:37:44.188Z,55.15
2018-06-10T09:38:44.181Z,54.58
2018-06-10T09:39:44.150Z,55.97
2018-06-10T09:40:44.137Z,55.57
2018-06-10T09:41:44.142Z,55.57
2018-06-10T09:42:44.118Z,55.97
2018-06-10T09:43:44.107Z,56.27
2018-06-10T09:44:44.096Z,56.07
2018-06-10T09:45:44.095Z,56.37
2018-06-10T09:46:44.090Z,56.57
2018-06-10T09:47:44.061Z,57.06
2018-06-10T09:48:44.053Z,57.17
2018-06-10T09:49:44.045Z,56.47
2018-06-10T09:50:44.069Z,56.37
2018-06-10T09:51:44.037Z,57.06
2018-06-10T09:52:44.004Z,57.36
2018-06-10T09:53:43.994Z,57.36
2018-06-10T09:54:43.986Z,56.87
2018-06-10T09:55:44.057Z,57.59
2018-06-10T09:56:43.980Z,57.66
2018-06-10T09:57:43.955Z,57.39
2018-06-10T09:58:43.936Z,57.59
2018-06-10T09:59:43.925Z,57.69
2018-06-10T10:00:43.924Z,57.39
2018-06-10T10:01:43.921Z,57.69
2018-06-10T10:02:43.957Z,57.36
2018-06-10T10:03:43.887Z,57.59
2018-06-10T10:04:43.873Z,57.59
2018-06-10T10:05:43.860Z,57.59
2018-06-10T10:06:43.872Z,57.36
2018-06-10T10:07:43.841Z,57.56
2018-06-10T10:08:43.840Z,57.69
2018-06-10T10:09:43.821Z,57.69
2018-06-10T10:10:43.806Z,57.49
2018-06-10T10:11:43.796Z,57.09
2018-06-10T10:12:43.802Z,57.79
2018-06-10T10:13:43.768Z,57.79
2018-06-10T10:14:43.773Z,58.69
2018-06-10T10:15:43.752Z,58.39
2018-06-10T10:16:43.750Z,58.28
2018-06-10T10:17:43.750Z,58.58
2018-06-10T10:18:43.715Z,58.58
2018-06-10T10:19:43.709Z,58.69
2018-06-10T10:20:43.701Z,58.58
2018-06-10T10:21:43.690Z,58.48
2018-06-10T10:22:43.692Z,58.78
2018-06-10T10:23:43.671Z,58.18
2018-06-10T10:24:43.686Z,58.69
2018-06-10T10:25:43.643Z,58.58
2018-06-10T10:26:43.639Z,58.48
2018-06-10T10:27:43.655Z,58.48
2018-06-10T10:28:43.616Z,58.58
2018-06-10T10:29:43.606Z,58.39
2018-06-10T10:30:43.588Z,58.39
2018-06-10T10:31:43.581Z,58.39
2018-06-10T10:32:43.589Z,58.48
2018-06-10T10:33:43.556Z,58.39
2018-06-10T10:34:43.552Z,58.39
2018-06-10T10:35:43.541Z,58.28
2018-06-10T10:36:43.579Z,58.28
2018-06-10T10:37:43.534Z,58.28
2018-06-10T10:38:43.509Z,58.78
2018-06-10T10:39:43.501Z,58.88
2018-06-10T10:40:43.486Z,58.41
2018-06-10T10:41:43.477Z,59.01
2018-06-10T10:42:43.481Z,58.81
2018-06-10T10:43:43.450Z,58.91
2018-06-10T10:44:43.440Z,58.91
2018-06-10T10:45:43.427Z,58.61
2018-06-10T10:46:43.424Z,59.21
2018-06-10T10:47:43.429Z,59.31
2018-06-10T10:48:43.403Z,59.31
2018-06-10T10:49:43.419Z,59.21
2018-06-10T10:50:43.374Z,59.31
2018-06-10T10:51:43.367Z,59.31
2018-06-10T10:52:43.379Z,59.51
2018-06-10T10:53:43.348Z,59.41
2018-06-10T10:54:43.333Z,59.21
2018-06-10T10:55:43.324Z,59.31
2018-06-10T10:56:43.313Z,59.31
2018-06-10T10:57:43.320Z,59.11
2018-06-10T10:58:43.298Z,59.21
2018-06-10T10:59:43.283Z,59.61
2018-06-10T11:00:43.279Z,59.51
2018-06-10T11:01:43.266Z,59.70
2018-06-10T11:02:43.269Z,59.81
2018-06-10T11:03:43.241Z,60.21
2018-06-10T11:04:43.232Z,59.41
2018-06-10T11:05:43.227Z,59.41
2018-06-10T11:06:43.214Z,59.61
2018-06-10T11:07:43.221Z,59.41
2018-06-10T11:08:43.187Z,60.21
2018-06-10T11:09:43.174Z,60.21
2018-06-10T11:10:43.169Z,59.91
2018-06-10T11:11:43.178Z,59.91
2018-06-10T11:12:43.167Z,59.70
2018-06-10T11:13:43.136Z,59.91
2018-06-10T11:14:43.119Z,59.83
2018-06-10T11:15:43.109Z,60.00
2018-06-10T11:16:43.100Z,59.70
2018-06-10T11:17:43.107Z,59.83
2018-06-10T11:18:43.081Z,59.81
2018-06-10T11:19:43.076Z,59.94
2018-06-10T11:20:43.077Z,60.03
2018-06-10T11:21:43.050Z,59.91
2018-06-10T11:22:43.065Z,59.81
2018-06-10T11:23:43.024Z,59.74
2018-06-10T11:24:43.016Z,59.70
2018-06-10T11:25:43.009Z,59.70
2018-06-10T11:26:42.990Z,59.74
2018-06-10T11:27:43.003Z,59.83
2018-06-10T11:28:42.971Z,59.81
2018-06-10T11:29:42.960Z,59.81
2018-06-10T11:30:42.953Z,59.74
2018-06-10T11:31:42.942Z,60.13
2018-06-10T11:32:42.949Z,59.70
2018-06-10T11:33:42.923Z,60.30
2018-06-10T11:34:42.906Z,59.64
2018-06-10T11:35:42.897Z,59.64
2018-06-10T11:36:42.888Z,60.33
2018-06-10T11:37:42.889Z,60.40
2018-06-10T11:38:42.871Z,60.00
2018-06-10T11:39:42.855Z,60.24
2018-06-10T11:40:42.839Z,59.81
2018-06-10T11:41:42.827Z,60.13
2018-06-10T11:42:42.854Z,60.24
2018-06-10T11:43:42.810Z,60.13
2018-06-10T11:44:42.799Z,60.43
2018-06-10T11:45:42.792Z,60.24
2018-06-10T11:46:42.774Z,60.03
2018-06-10T11:47:42.783Z,60.03
2018-06-10T11:48:42.752Z,60.03
2018-06-10T11:49:42.744Z,60.13
2018-06-10T11:50:42.736Z,60.13
2018-06-10T11:51:42.739Z,60.13
2018-06-10T11:52:42.736Z,60.11
2018-06-10T11:53:42.701Z,60.13
2018-06-10T11:54:42.692Z,60.30
2018-06-10T11:55:42.682Z,60.11
2018-06-10T11:56:42.669Z,60.13
2018-06-10T11:57:42.676Z,60.13
2018-06-10T11:58:42.646Z,60.24
2018-06-10T11:59:42.629Z,60.24
2018-06-10T12:00:42.618Z,60.53
2018-06-10T12:01:42.613Z,60.24
2018-06-10T12:02:42.620Z,60.13
2018-06-10T12:03:42.592Z,60.13
2018-06-10T12:04:42.581Z,60.11
2018-06-10T12:05:42.567Z,60.11
2018-06-10T12:06:42.553Z,60.30
2018-06-10T12:07:42.571Z,60.53
2018-06-10T12:08:42.532Z,60.40
2018-06-10T12:09:42.555Z,60.03
2018-06-10T12:10:42.566Z,60.24
2018-06-10T12:11:42.532Z,60.11
2018-06-10T12:12:42.489Z,60.40
2018-06-10T12:13:42.582Z,60.43
2018-06-10T12:14:42.471Z,60.00
2018-06-10T12:15:42.463Z,60.53
2018-06-10T12:16:42.491Z,60.24
2018-06-10T12:17:42.440Z,60.24
2018-06-10T12:18:42.449Z,60.53
2018-06-10T12:19:42.415Z,60.53
2018-06-10T12:20:42.402Z,60.33
2018-06-10T12:21:42.396Z,60.11
2018-06-10T12:22:42.474Z,60.13
2018-06-10T12:23:42.408Z,60.24
2018-06-10T12:24:42.367Z,60.33
2018-06-10T12:25:42.359Z,59.94
2018-06-10T12:26:42.342Z,60.63
2018-06-10T12:27:42.329Z,60.43
2018-06-10T12:28:42.325Z,59.94
2018-06-10T12:29:42.331Z,59.83
2018-06-10T12:30:42.304Z,59.94
2018-06-10T12:31:42.287Z,60.70
2018-06-10T12:32:42.277Z,60.24
2018-06-10T12:33:42.314Z,59.94
2018-06-10T12:34:42.279Z,59.94
2018-06-10T12:35:42.249Z,60.00
2018-06-10T12:36:42.238Z,60.63
2018-06-10T12:37:42.234Z,60.33
2018-06-10T12:38:42.214Z,59.94
2018-06-10T12:39:42.221Z,59.91
2018-06-10T12:40:42.186Z,59.94
2018-06-10T12:41:42.230Z,59.91
2018-06-10T12:42:42.167Z,60.90
2018-06-10T12:43:42.166Z,59.83
2018-06-10T12:44:42.160Z,59.83
2018-06-10T12:45:42.132Z,59.94
2018-06-10T12:46:42.123Z,60.24
2018-06-10T12:47:42.114Z,59.83
2018-06-10T12:48:42.103Z,60.03
2018-06-10T12:49:42.112Z,59.83
2018-06-10T12:50:42.082Z,60.93
2018-06-10T12:51:42.066Z,59.94
2018-06-10T12:52:42.053Z,59.94